createdAt,value
2018-11-01T00:04:23.414Z,98.34
2018-11-01T00:09:26.933Z,98.18
2018-11-01T00:14:30.697Z,98.87
2018-11-01T00:19:33.869Z,98.90
2018-11-01T00:24:37.052Z,98.73
2018-11-01T00:29:40.194Z,98.23
2018-11-01T00:34:43.393Z,98.08
2018-11-01T00:39:46.642Z,97.20
2018-11-01T00:44:49.893Z,97.39
2018-11-01T00:49:53.152Z,97.88
2018-11-01T00:54:56.450Z,98.36
2018-11-01T00:59:59.768Z,98.53
2018-11-01T01:05:03.148Z,99.16
2018-11-01T01:10:09.180Z,98.83
2018-11-01T01:15:12.242Z,99.30
2018-11-01T01:20:15.527Z,99.45
2018-11-01T01:25:18.973Z,99.47
2018-11-01T01:30:22.183Z,99.68
2018-11-01T01:35:25.388Z,100.00
2018-11-01T01:40:28.652Z,99.81
2018-11-01T01:45:31.873Z,100.00
2018-11-01T01:50:35.179Z,100.00
2018-11-01T01:55:38.280Z,100.00
2018-11-01T02:00:42.149Z,100.00
2018-11-01T02:05:45.366Z,100.00
2018-11-01T02:10:48.599Z,100.00
2018-11-01T02:15:51.830Z,100.00
2018-11-01T02:20:54.994Z,100.00
2018-11-01T02:25:58.132Z,100.00
2018-11-01T02:31:01.351Z,100.00
2018-11-01T02:36:04.887Z,100.00
2018-11-01T02:41:08.089Z,100.00
2018-11-01T02:46:11.280Z,100.00
2018-11-01T02:51:14.933Z,100.00
2018-11-01T02:56:18.095Z,100.00
2018-11-01T03:01:21.585Z,100.00
2018-11-01T03:06:24.821Z,100.00
2018-11-01T03:11:28.037Z,100.00
2018-11-01T03:16:31.279Z,100.00
2018-11-01T03:21:34.469Z,100.00
2018-11-01T03:26:37.715Z,100.00
2018-11-01T03:31:40.749Z,100.00
2018-11-01T03:36:43.909Z,100.00
2018-11-01T03:41:47.220Z,100.00
2018-11-01T03:46:50.549Z,100.00
2018-11-01T03:51:53.831Z,100.00
2018-11-01T03:56:57.819Z,100.00
2018-11-01T04:02:01.408Z,100.00
2018-11-01T04:07:04.684Z,100.00
2018-11-01T04:12:07.959Z,100.00
2018-11-01T04:17:11.262Z,100.00
2018-11-01T04:22:14.340Z,100.00
2018-11-01T04:27:17.555Z,100.00
2018-11-01T04:32:20.805Z,100.00
2018-11-01T04:37:24.032Z,100.00
2018-11-01T04:42:27.189Z,100.00
2018-11-01T04:47:30.928Z,100.00
2018-11-01T04:52:34.079Z,100.00
2018-11-01T04:57:37.278Z,100.00
2018-11-01T05:02:40.554Z,100.00
2018-11-01T05:07:43.742Z,100.00
2018-11-01T05:12:46.982Z,100.00
2018-11-01T05:17:50.155Z,100.00
2018-11-01T05:22:53.376Z,100.00
2018-11-01T05:27:56.651Z,100.00
2018-11-01T05:32:59.814Z,100.00
2018-11-01T05:38:02.965Z,100.00
2018-11-01T05:43:06.108Z,100.00
2018-11-01T05:48:09.612Z,100.00
2018-11-01T05:53:13.302Z,100.00
2018-11-01T05:58:16.519Z,100.00
2018-11-01T06:03:19.772Z,100.00
2018-11-01T06:08:22.978Z,100.00
2018-11-01T06:13:43.124Z,100.00
2018-11-01T06:18:48.142Z,100.00
2018-11-01T06:23:52.068Z,100.00
2018-11-01T06:28:55.291Z,100.00
2018-11-01T06:33:58.512Z,100.00
2018-11-01T06:39:01.808Z,100.00
2018-11-01T06:44:05.075Z,100.00
2018-11-01T06:49:08.344Z,100.00
2018-11-01T06:54:11.518Z,100.00
2018-11-01T06:59:14.990Z,100.00
2018-11-01T07:04:18.736Z,100.00
2018-11-01T07:09:22.009Z,100.00
2018-11-01T07:14:25.347Z,98.37
2018-11-01T07:19:28.792Z,96.12
2018-11-01T07:24:32.052Z,95.70
2018-11-01T07:29:35.324Z,95.47
2018-11-01T07:34:38.498Z,93.14
2018-11-01T07:39:41.829Z,92.14
2018-11-01T07:44:45.133Z,91.30
2018-11-01T07:49:48.405Z,90.84
2018-11-01T07:54:51.813Z,89.97
2018-11-01T07:59:55.108Z,88.17
2018-11-01T08:04:58.310Z,86.34
2018-11-01T08:10:11.647Z,84.08
2018-11-01T08:15:16.332Z,83.26
2018-11-01T08:20:19.727Z,83.49
2018-11-01T08:25:28.482Z,84.75
2018-11-01T08:30:31.766Z,84.06
2018-11-01T08:35:35.116Z,84.74
2018-11-01T08:40:44.117Z,83.52
2018-11-01T08:45:47.614Z,80.72
2018-11-01T08:50:56.552Z,79.68
2018-11-01T08:56:00.723Z,80.20
2018-11-01T09:01:04.152Z,78.40
2018-11-01T09:06:07.408Z,77.12
2018-11-01T09:11:16.676Z,76.61
2018-11-01T09:16:25.281Z,71.48
2018-11-01T09:21:34.162Z,70.76
2018-11-01T09:26:37.428Z,69.55
2018-11-01T09:31:40.654Z,68.65
2018-11-01T09:36:45.127Z,68.59
2018-11-01T09:41:48.342Z,70.54
2018-11-01T09:46:52.265Z,71.59
2018-11-01T09:51:55.331Z,73.03
2018-11-01T09:56:58.659Z,71.59
2018-11-01T10:02:02.170Z,70.00
2018-11-01T10:07:05.771Z,67.51
2018-11-01T10:12:08.954Z,63.18
2018-11-01T10:17:12.478Z,60.01
2018-11-01T10:22:15.855Z,61.71
2018-11-01T10:27:20.069Z,61.04
2018-11-01T10:32:23.157Z,57.37
2018-11-01T10:37:26.444Z,51.25
2018-11-01T10:42:29.662Z,49.26
2018-11-01T10:47:32.993Z,52.80
2018-11-01T10:52:36.411Z,52.02
2018-11-01T10:57:39.620Z,55.01
2018-11-01T11:02:43.146Z,57.46
2018-11-01T11:07:46.538Z,58.26
2018-11-01T11:12:49.824Z,58.79
2018-11-01T11:17:52.958Z,60.09
2018-11-01T11:22:56.337Z,60.01
2018-11-01T11:33:09.419Z,62.13
2018-11-01T11:38:12.914Z,62.34
2018-11-01T11:43:16.384Z,62.11
2018-11-01T11:48:19.713Z,64.20
2018-11-01T11:53:23.161Z,65.17
2018-11-01T11:58:26.503Z,64.89
2018-11-01T12:03:29.848Z,66.32
2018-11-01T12:08:33.320Z,65.76
2018-11-01T12:13:36.520Z,66.14
2018-11-01T12:18:39.852Z,67.06
2018-11-01T12:23:43.062Z,66.61
2018-11-01T12:28:46.569Z,66.50
2018-11-01T12:33:50.045Z,67.45
2018-11-01T12:38:54.411Z,68.03
2018-11-01T12:43:57.603Z,68.04
2018-11-01T12:49:01.126Z,67.62
2018-11-01T12:54:04.556Z,68.27
2018-11-01T12:59:07.750Z,69.09
2018-11-01T13:04:11.016Z,68.80
2018-11-01T13:09:14.298Z,69.08
2018-11-01T13:14:17.589Z,69.52
2018-11-01T13:19:20.871Z,69.27
2018-11-01T13:24:24.065Z,70.54
2018-11-01T13:29:29.037Z,71.34
2018-11-01T13:34:32.121Z,71.03
2018-11-01T13:39:37.325Z,71.41
2018-11-01T13:44:40.645Z,71.35
2018-11-01T13:49:44.150Z,72.20
2018-11-01T13:54:47.416Z,71.96
2018-11-01T13:59:50.675Z,72.23
2018-11-01T14:04:53.888Z,72.09
2018-11-01T14:09:57.101Z,73.09
2018-11-01T14:15:00.602Z,73.36
2018-11-01T14:20:03.560Z,73.93
2018-11-01T14:25:07.552Z,74.80
2018-11-01T14:30:11.606Z,75.42
2018-11-01T14:35:15.042Z,75.59
2018-11-01T14:40:18.356Z,76.57
2018-11-01T14:45:21.643Z,76.82
2018-11-01T14:50:24.843Z,77.38
2018-11-01T14:55:29.946Z,77.88
2018-11-01T15:00:31.551Z,79.00
2018-11-01T15:05:34.776Z,79.70
2018-11-01T15:10:37.985Z,80.34
2018-11-01T15:15:41.198Z,81.35
2018-11-01T15:20:44.654Z,82.29
2018-11-01T15:25:47.810Z,82.22
2018-11-01T15:30:51.196Z,82.25
2018-11-01T15:35:54.620Z,83.08
2018-11-01T15:40:59.167Z,84.20
2018-11-01T15:46:02.359Z,85.92
2018-11-01T15:51:06.744Z,87.79
2018-11-01T15:56:10.321Z,88.33
2018-11-01T16:01:13.601Z,88.83
2018-11-01T16:06:17.009Z,90.63
2018-11-01T16:11:20.899Z,91.05
2018-11-01T16:16:24.232Z,91.57
2018-11-01T16:21:27.367Z,92.57
2018-11-01T16:26:30.527Z,93.90
2018-11-01T16:31:36.121Z,94.31
2018-11-01T16:36:40.012Z,94.58
2018-11-01T16:41:43.175Z,96.63
2018-11-01T16:46:46.576Z,95.91
2018-11-01T16:51:49.830Z,96.50
2018-11-01T16:56:53.018Z,96.90
2018-11-01T17:01:57.180Z,97.71
2018-11-01T17:07:00.600Z,97.95
2018-11-01T17:12:04.420Z,98.85
2018-11-01T17:17:07.610Z,99.61
2018-11-01T17:22:10.960Z,100.00
2018-11-01T17:27:14.359Z,100.00
2018-11-01T17:32:17.616Z,100.00
2018-11-01T17:37:21.018Z,100.00
2018-11-01T17:42:24.256Z,100.00
2018-11-01T17:47:27.572Z,100.00
2018-11-01T17:52:30.834Z,100.00
2018-11-01T17:57:34.106Z,100.00
2018-11-01T18:02:37.646Z,100.00
2018-11-01T18:07:40.908Z,100.00
2018-11-01T18:12:44.367Z,100.00
2018-11-01T18:17:47.578Z,100.00
2018-11-01T18:22:51.238Z,100.00
2018-11-01T18:27:54.549Z,100.00
2018-11-01T18:32:57.967Z,100.00
2018-11-01T18:38:01.075Z,100.00
2018-11-01T18:43:04.820Z,100.00
2018-11-01T18:48:08.298Z,100.00
2018-11-01T18:53:12.062Z,100.00
2018-11-01T18:58:15.345Z,100.00
2018-11-01T19:03:18.588Z,100.00
2018-11-01T19:08:22.258Z,100.00
2018-11-01T19:13:25.673Z,100.00
2018-11-01T19:18:28.994Z,100.00
2018-11-01T19:23:32.193Z,100.00
2018-11-01T19:28:35.517Z,100.00
2018-11-01T19:33:38.824Z,100.00
2018-11-01T19:38:42.088Z,100.00
2018-11-01T19:43:45.458Z,100.00
2018-11-01T19:48:49.284Z,100.00
2018-11-01T19:53:52.729Z,100.00
2018-11-01T19:58:55.997Z,100.00
2018-11-01T20:03:59.888Z,100.00
2018-11-01T20:09:04.167Z,100.00
2018-11-01T20:14:07.359Z,100.00
2018-11-01T20:19:11.053Z,100.00
2018-11-01T20:24:14.341Z,100.00
2018-11-01T20:29:19.570Z,100.00
2018-11-01T20:34:25.092Z,100.00
2018-11-01T20:39:30.494Z,100.00
2018-11-01T20:44:35.237Z,100.00
2018-11-01T20:49:39.843Z,100.00
2018-11-01T20:54:44.876Z,100.00
2018-11-01T20:59:50.209Z,100.00
2018-11-01T21:04:55.189Z,100.00
2018-11-01T21:09:59.696Z,100.00
2018-11-01T21:15:03.489Z,100.00
2018-11-01T21:20:06.806Z,100.00
2018-11-01T21:25:10.331Z,100.00
2018-11-01T21:30:15.435Z,100.00
2018-11-01T21:35:18.878Z,100.00
2018-11-01T21:40:21.988Z,100.00
2018-11-01T21:45:25.287Z,100.00
2018-11-01T21:50:28.483Z,100.00
2018-11-01T21:55:31.702Z,100.00
2018-11-01T22:00:34.876Z,100.00
2018-11-01T22:05:38.220Z,100.00
2018-11-01T22:10:41.500Z,100.00
2018-11-01T22:15:44.964Z,100.00
2018-11-01T22:20:48.294Z,100.00
2018-11-01T22:25:51.498Z,100.00
2018-11-01T22:30:54.787Z,100.00
2018-11-01T22:35:58.198Z,100.00
2018-11-01T22:41:01.363Z,100.00
2018-11-01T22:46:04.669Z,100.00
2018-11-01T22:51:08.823Z,100.00
2018-11-01T22:56:12.011Z,100.00
2018-11-01T23:01:15.425Z,100.00
2018-11-01T23:06:18.836Z,100.00
2018-11-01T23:11:22.060Z,100.00
2018-11-01T23:16:25.272Z,100.00
2018-11-01T23:21:28.419Z,100.00
2018-11-01T23:26:31.636Z,100.00
2018-11-01T23:31:34.795Z,100.00
2018-11-01T23:36:38.086Z,100.00
2018-11-01T23:41:42.260Z,100.00
2018-11-01T23:46:45.473Z,100.00
2018-11-01T23:51:48.736Z,100.00
2018-11-01T23:56:51.938Z,100.00
